Time;durP1;ratioP1;P1;durP2;ratioP2;P2;SDS_P1;SDS_P2;PMS_P1;PMS_P2;Temp;Humidity;BMP_temperature;BMP_pressure;BME280_temperature;BME280_humidity;BME280_pressure;Samples;Min_cycle;Max_cycle;Signal;HPM_P1;HPM_P2
2023/04/06 00:00:05;;;;;;;18.87;10.67;;;;;;;1.80;55.58;101236.91;680548;29;1281;-85
2023/04/06 00:00:30;;;;;;;19.75;10.85;;;;;;;1.82;55.16;101232.75;680547;29;804;-85
2023/04/06 00:00:51;;;;;;;17.55;11.10;;;;;;;1.81;55.42;101238.69;682887;29;1175;-85
2023/04/06 00:01:12;;;;;;;18.40;11.32;;;;;;;1.81;55.23;101242.91;688448;28;987;-85
2023/04/06 00:01:33;;;;;;;20.25;11.60;;;;;;;1.79;55.43;101250.56;688443;28;1190;-85
2023/04/06 00:01:54;;;;;;;20.60;11.52;;;;;;;1.83;55.26;101247.41;682952;29;1093;-85
2023/04/06 00:02:15;;;;;;;21.27;11.75;;;;;;;1.74;55.60;101241.59;688380;28;1403;-85
2023/04/06 00:02:36;;;;;;;19.48;11.23;;;;;;;1.81;55.38;101243.81;685650;28;1297;-85
2023/04/06 00:02:57;;;;;;;18.95;11.40;;;;;;;1.76;55.59;101252.88;685754;28;1014;-84
2023/04/06 00:03:18;;;;;;;19.90;11.15;;;;;;;1.80;55.59;101246.28;683039;29;1245;-85
2023/04/06 00:03:38;;;;;;;18.05;10.65;;;;;;;1.85;55.83;101251.00;682952;29;1165;-85
2023/04/06 00:03:59;;;;;;;18.08;10.60;;;;;;;1.83;55.43;101247.41;685570;28;1095;-85
2023/04/06 00:04:20;;;;;;;15.85;10.20;;;;;;;1.80;55.35;101242.03;683075;28;1192;-84
2023/04/06 00:04:41;;;;;;;15.50;10.45;;;;;;;1.90;55.32;101249.63;682904;28;1299;-85
2023/04/06 00:05:02;;;;;;;16.95;10.70;;;;;;;1.86;55.52;101241.56;685660;28;1193;-85
2023/04/06 00:05:22;;;;;;;16.87;10.83;;;;;;;1.81;55.54;101236.09;688563;28;772;-85
2023/04/06 00:05:43;;;;;;;16.60;10.80;;;;;;;1.81;55.41;101240.34;688091;28;1306;-85
2023/04/06 00:06:04;;;;;;;16.35;10.88;;;;;;;1.82;55.55;101240.47;688347;28;1080;-85
2023/04/06 00:06:25;;;;;;;17.85;11.00;;;;;;;1.81;55.51;101238.69;680301;29;1246;-85
2023/04/06 00:06:46;;;;;;;18.95;11.10;;;;;;;1.81;55.24;101233.53;680291;29;1115;-85
2023/04/06 00:07:06;;;;;;;18.70;11.00;;;;;;;1.84;55.38;101238.00;683067;28;1227;-84
2023/04/06 00:07:28;;;;;;;17.13;10.88;;;;;;;1.90;55.50;101248.75;685925;28;1221;-85
2023/04/06 00:07:49;;;;;;;15.52;10.18;;;;;;;1.85;55.40;101238.13;683017;28;1374;-85
2023/04/06 00:08:10;;;;;;;14.43;9.80;;;;;;;1.80;55.08;101221.44;683053;28;1382;-84
2023/04/06 00:08:31;;;;;;;16.40;10.30;;;;;;;1.86;55.42;101241.56;683131;28;1428;-85
2023/04/06 00:08:51;;;;;;;17.50;10.70;;;;;;;1.85;55.05;101235.56;680442;29;1167;-85
2023/04/06 00:09:12;;;;;;;18.77;10.93;;;;;;;1.80;55.34;101236.91;680546;29;1051;-85
2023/04/06 00:09:33;;;;;;;17.83;10.75;;;;;;;1.83;55.18;101236.22;680757;29;780;-84
2023/04/06 00:09:53;;;;;;;17.88;10.68;;;;;;;1.70;55.59;101234.47;683107;29;1233;-85
2023/04/06 00:10:15;;;;;;;17.10;10.30;;;;;;;1.63;55.53;101234.00;688591;28;1348;-84
2023/04/06 00:10:36;;;;;;;15.95;9.90;;;;;;;1.62;55.71;101233.88;688635;28;1170;-85
2023/04/06 00:10:57;;;;;;;15.73;10.10;;;;;;;1.62;55.78;101237.38;685785;28;994;-85
2023/04/06 00:11:18;;;;;;;16.17;10.70;;;;;;;1.57;55.80;101233.56;680536;29;1073;-85
2023/04/06 00:11:38;;;;;;;16.60;10.88;;;;;;;1.51;55.91;101230.53;683117;29;1081;-84
2023/04/06 00:12:00;;;;;;;15.38;10.27;;;;;;;1.47;56.22;101216.56;685699;28;1177;-85
2023/04/06 00:12:20;;;;;;;15.63;9.70;;;;;;;1.53;55.85;101234.16;685674;28;1108;-84
2023/04/06 00:12:41;;;;;;;16.90;9.50;;;;;;;1.53;55.91;101235.81;682931;29;1981;-84
2023/04/06 00:13:02;;;;;;;17.75;9.90;;;;;;;1.53;56.37;101246.09;680097;29;1228;-85
2023/04/06 00:13:22;;;;;;;19.35;10.55;;;;;;;1.51;56.08;101235.69;677922;29;1172;-84
2023/04/06 00:13:43;;;;;;;19.70;11.03;;;;;;;1.58;55.89;101230.19;680165;29;1354;-85
2023/04/06 00:14:04;;;;;;;20.57;11.40;;;;;;;1.53;55.97;101226.44;683152;29;1208;-85
2023/04/06 00:14:24;;;;;;;19.17;10.85;;;;;;;1.49;56.18;101226.97;683060;29;1062;-84
2023/04/06 00:14:45;;;;;;;19.15;10.80;;;;;;;1.45;56.13;101233.56;683020;29;1040;-85
2023/04/06 00:15:06;;;;;;;17.55;10.52;;;;;;;1.54;56.04;101253.03;680361;29;1158;-85
2023/04/06 00:15:27;;;;;;;18.23;10.70;;;;;;;1.48;56.48;101240.63;680360;29;1343;-84
2023/04/06 00:15:48;;;;;;;18.75;10.60;;;;;;;1.47;56.17;101232.00;682923;29;967;-85
2023/04/06 00:16:09;;;;;;;19.20;10.60;;;;;;;1.53;56.23;101249.56;683009;29;1227;-85
2023/04/06 00:16:30;;;;;;;18.73;10.77;;;;;;;1.46;56.22;101229.34;682915;29;1446;-85
2023/04/06 00:16:55;;;;;;;17.95;11.05;;;;;;;1.47;56.17;101242.28;685400;28;1392;-84
2023/04/06 00:17:15;;;;;;;16.60;11.00;;;;;;;1.55;56.44;101241.94;685676;28;982;-84
2023/04/06 00:17:36;;;;;;;16.07;10.97;;;;;;;1.55;56.47;101232.56;683032;29;1037;-84
2023/04/06 00:17:57;;;;;;;16.60;10.47;;;;;;;1.44;56.52;101225.72;680203;29;1202;-84
2023/04/06 00:18:18;;;;;;;17.92;10.70;;;;;;;1.58;56.59;101247.34;685649;28;1085;-85
2023/04/06 00:18:39;;;;;;;17.25;10.48;;;;;;;1.64;56.42;101245.19;684794;28;1255;-85
2023/04/06 00:18:59;;;;;;;17.70;10.68;;;;;;;1.68;55.90;101241.16;685734;28;936;-85
2023/04/06 00:19:20;;;;;;;16.92;10.23;;;;;;;1.67;55.98;101234.22;685760;28;1168;-85
2023/04/06 00:19:41;;;;;;;18.70;10.30;;;;;;;1.68;56.21;101234.34;682905;29;1009;-84
2023/04/06 00:20:02;;;;;;;19.38;10.68;;;;;;;1.71;55.69;101238.81;685720;28;1160;-85
2023/04/06 00:20:23;;;;;;;19.38;11.00;;;;;;;1.68;56.19;101230.84;682938;29;1279;-84
2023/04/06 00:20:44;;;;;;;17.60;11.13;;;;;;;1.70;55.83;101230.19;680149;29;1310;-85
2023/04/06 00:21:05;;;;;;;16.73;11.02;;;;;;;1.76;55.77;101250.31;685749;28;1185;-85
2023/04/06 00:21:26;;;;;;;17.33;11.18;;;;;;;1.71;55.77;101236.25;691196;28;811;-85
2023/04/06 00:21:47;;;;;;;17.27;10.90;;;;;;;1.75;55.94;101243.38;685492;28;1319;-85
2023/04/06 00:22:08;;;;;;;16.90;10.60;;;;;;;1.77;55.82;101237.56;680442;29;1013;-85
2023/04/06 00:22:28;;;;;;;15.52;10.30;;;;;;;1.79;55.83;101237.69;682859;28;1202;-85
2023/04/06 00:22:49;;;;;;;16.48;10.63;;;;;;;1.75;55.38;101233.09;685452;28;1274;-85
2023/04/06 00:23:10;;;;;;;19.10;10.70;;;;;;;1.81;55.58;101243.81;685660;28;1338;-85
2023/04/06 00:23:30;;;;;;;19.23;10.90;;;;;;;1.85;55.64;101244.94;683121;29;1252;-83
2023/04/06 00:23:51;;;;;;;19.40;10.82;;;;;;;1.75;55.85;101228.84;682892;29;1064;-85
2023/04/06 00:24:12;;;;;;;17.70;10.95;;;;;;;1.82;55.53;101239.59;677735;29;1172;-85
2023/04/06 00:24:32;;;;;;;18.05;10.95;;;;;;;1.75;55.96;101222.78;683013;28;1180;-85
2023/04/06 00:24:53;;;;;;;17.60;11.17;;;;;;;1.75;55.80;101228.84;682868;28;1280;-85
2023/04/06 00:25:15;;;;;;;17.67;11.23;;;;;;;1.81;55.82;101237.75;682941;28;1174;-85
2023/04/06 00:25:35;;;;;;;17.58;11.48;;;;;;;1.77;55.77;101231.53;683099;28;871;-85
2023/04/06 00:25:56;;;;;;;17.30;11.55;;;;;;;1.81;55.77;101237.75;685474;28;1051;-85
2023/04/06 00:26:18;;;;;;;15.63;11.10;;;;;;;1.76;55.47;101224.56;685730;28;1111;-85
2023/04/06 00:26:44;;;;;;;16.40;11.20;;;;;;;1.83;55.43;101231.94;685169;28;1061;-84
2023/04/06 00:27:05;;;;;;;15.60;10.52;;;;;;;1.76;55.51;101228.06;680375;29;1110;-85
2023/04/06 00:27:25;;;;;;;15.73;10.50;;;;;;;1.79;55.71;101224.81;683079;29;1176;-85
2023/04/06 00:27:46;;;;;;;14.20;10.03;;;;;;;1.79;55.50;101232.53;685494;28;1201;-85
2023/04/06 00:28:07;;;;;;;16.05;10.00;;;;;;;1.79;55.30;101235.09;680366;29;1287;-85
2023/04/06 00:28:29;;;;;;;18.70;10.40;;;;;;;1.73;55.52;101221.81;680411;29;1313;-85
2023/04/06 00:28:52;;;;;;;20.35;10.75;;;;;;;1.66;55.88;101222.13;682830;29;1382;-85
2023/04/06 00:29:12;;;;;;;18.65;10.48;;;;;;;1.62;56.04;101219.38;680261;29;1268;-85
2023/04/06 00:29:34;;;;;;;17.42;10.30;;;;;;;1.70;55.62;101230.19;683048;29;1476;-84
2023/04/06 00:29:55;;;;;;;16.63;10.38;;;;;;;1.67;55.75;101224.84;682808;29;1293;-85
2023/04/06 00:30:15;;;;;;;17.30;10.52;;;;;;;1.75;55.64;101238.22;682994;29;1029;-84
2023/04/06 00:30:36;;;;;;;17.13;10.60;;;;;;;1.76;55.72;101230.63;685537;28;1434;-85
2023/04/06 00:31:02;;;;;;;17.40;10.52;;;;;;;1.70;55.93;101219.00;682925;29;1220;-84
2023/04/06 00:31:23;;;;;;;15.27;10.43;;;;;;;1.74;55.94;101228.72;682935;29;1242;-85
2023/04/06 00:31:44;;;;;;;16.52;10.32;;;;;;;1.71;55.93;101226.81;680212;29;1124;-85
2023/04/06 00:32:05;;;;;;;16.98;10.35;;;;;;;1.75;55.80;101225.38;682961;29;1121;-84
2023/04/06 00:32:26;;;;;;;16.92;10.40;;;;;;;1.78;56.00;101235.91;683167;29;1275;-85
2023/04/06 00:32:46;;;;;;;16.42;10.35;;;;;;;1.79;56.03;101235.09;680096;29;1935;-85
2023/04/06 00:33:07;;;;;;;16.30;10.43;;;;;;;1.79;55.94;101229.06;685727;28;1256;-85
2023/04/06 00:33:28;;;;;;;17.45;10.70;;;;;;;1.76;55.70;101228.06;685590;28;1065;-85
2023/04/06 00:33:49;;;;;;;15.83;10.50;;;;;;;1.81;55.95;101237.75;685487;28;1359;-85
2023/04/06 00:34:10;;;;;;;16.25;10.20;;;;;;;1.75;55.83;101230.50;688236;28;1192;-85
2023/04/06 00:34:30;;;;;;;17.98;10.40;;;;;;;1.75;55.92;101233.09;688375;28;858;-85
2023/04/06 00:34:51;;;;;;;18.90;10.75;;;;;;;1.82;55.99;101240.47;688148;28;1110;-85
2023/04/06 00:35:12;;;;;;;18.33;11.02;;;;;;;1.81;55.62;101237.75;685502;28;1074;-84
2023/04/06 00:35:33;;;;;;;17.75;11.23;;;;;;;1.70;55.78;101213.88;685640;28;1207;-85
2023/04/06 00:35:54;;;;;;;19.55;11.50;;;;;;;1.75;55.97;101233.09;682932;28;1277;-85
2023/04/06 00:36:15;;;;;;;19.77;11.48;;;;;;;1.71;55.83;101220.81;682899;28;1289;-85
2023/04/06 00:36:36;;;;;;;19.33;11.20;;;;;;;1.69;55.76;101218.09;683022;29;1220;-84
2023/04/06 00:36:57;;;;;;;17.10;11.07;;;;;;;1.76;55.73;101234.88;682800;29;983;-85
2023/04/06 00:37:19;;;;;;;16.92;11.20;;;;;;;1.66;55.98;101211.84;690968;28;1332;-85
2023/04/06 00:37:39;;;;;;;16.20;10.80;;;;;;;1.66;55.97;101217.00;685492;28;1286;-85
2023/04/06 00:38:00;;;;;;;16.52;10.80;;;;;;;1.63;56.01;101213.44;677634;29;1331;-85
2023/04/06 00:38:21;;;;;;;16.85;10.65;;;;;;;1.69;55.94;101224.91;680368;29;1128;-85
2023/04/06 00:38:42;;;;;;;17.45;10.90;;;;;;;1.67;55.83;101213.63;682902;29;1119;-84
2023/04/06 00:39:02;;;;;;;16.90;10.60;;;;;;;1.74;56.16;101226.16;682965;29;1026;-83
2023/04/06 00:39:23;;;;;;;15.88;10.35;;;;;;;1.67;55.94;101213.63;683157;29;1037;-85
2023/04/06 00:39:44;;;;;;;15.00;10.27;;;;;;;1.71;55.89;101225.94;683145;28;1156;-85
2023/04/06 00:40:06;;;;;;;15.17;10.13;;;;;;;1.77;55.62;101231.53;677702;29;1319;-85
2023/04/06 00:40:28;;;;;;;15.15;10.13;;;;;;;1.63;55.83;101203.13;682943;29;1218;-85
2023/04/06 00:40:49;;;;;;;15.18;9.55;;;;;;;1.72;55.79;101227.72;685511;28;1345;-84
2023/04/06 00:41:11;;;;;;;17.23;10.20;;;;;;;1.66;55.65;101222.13;685509;28;1406;-85
2023/04/06 00:41:32;;;;;;;16.55;10.30;;;;;;;1.71;55.74;101225.94;685658;28;788;-84
2023/04/06 00:41:53;;;;;;;17.37;10.83;;;;;;;1.58;56.15;101211.31;682773;28;1279;-84
2023/04/06 00:42:14;;;;;;;16.25;10.02;;;;;;;1.63;56.18;101221.16;685600;28;1237;-84
2023/04/06 00:42:35;;;;;;;16.67;10.10;;;;;;;1.66;56.14;101217.00;680313;29;1143;-85
2023/04/06 00:42:56;;;;;;;17.17;10.00;;;;;;;1.65;55.88;101210.97;683010;29;1025;-85
2023/04/06 00:43:17;;;;;;;18.60;10.80;;;;;;;1.71;55.90;101223.38;685529;28;1293;-85
2023/04/06 00:43:39;;;;;;;20.35;10.85;;;;;;;1.63;55.97;101205.72;685503;28;1292;-84
2023/04/06 00:43:59;;;;;;;19.48;11.23;;;;;;;1.65;55.88;101205.81;685499;28;1146;-85
2023/04/06 00:44:20;;;;;;;17.90;10.80;;;;;;;1.61;55.91;101204.72;685641;28;1198;-85
2023/04/06 00:44:41;;;;;;;16.83;10.63;;;;;;;1.63;56.04;101205.72;680178;29;1208;-85
2023/04/06 00:45:02;;;;;;;17.02;10.60;;;;;;;1.68;56.25;101218.00;683014;29;1217;-85
2023/04/06 00:45:23;;;;;;;15.80;10.25;;;;;;;1.72;55.82;101222.59;683044;28;792;-85
2023/04/06 00:45:46;;;;;;;17.52;9.90;;;;;;;1.62;55.85;101214.22;682800;29;1241;-84
2023/04/06 00:46:07;;;;;;;16.73;9.95;;;;;;;1.60;55.89;101205.47;688234;28;1127;-85
2023/04/06 00:46:28;;;;;;;18.10;10.35;;;;;;;1.69;56.21;101222.34;690985;28;863;-84
2023/04/06 00:46:49;;;;;;;17.83;10.90;;;;;;;1.68;56.14;101215.41;687991;28;1301;-85
2023/04/06 00:47:10;;;;;;;18.05;10.90;;;;;;;1.70;56.04;101219.00;682946;29;1199;-84
2023/04/06 00:47:30;;;;;;;18.00;10.98;;;;;;;1.71;56.12;101207.94;683040;29;919;-85
2023/04/06 00:47:51;;;;;;;16.85;10.90;;;;;;;1.78;55.97;101223.03;682848;29;1168;-85
2023/04/06 00:48:13;;;;;;;16.98;10.90;;;;;;;1.73;56.17;101216.66;683040;29;1118;-85
2023/04/06 00:48:33;;;;;;;16.95;10.88;;;;;;;1.69;56.06;101214.63;680407;29;871;-85
2023/04/06 00:48:54;;;;;;;16.67;10.80;;;;;;;1.70;56.27;101208.72;680057;29;1222;-84
2023/04/06 00:49:15;;;;;;;17.00;10.50;;;;;;;1.72;56.15;101223.47;680314;29;1006;-84
2023/04/06 00:49:35;;;;;;;15.95;9.93;;;;;;;1.70;56.03;101211.31;685491;28;1177;-85
2023/04/06 00:49:56;;;;;;;17.60;9.97;;;;;;;1.72;55.89;101220.00;682799;29;1204;-84
2023/04/06 00:50:17;;;;;;;17.73;10.10;;;;;;;1.71;56.11;101210.50;682462;29;1279;-85
2023/04/06 00:50:38;;;;;;;18.40;10.80;;;;;;;1.70;56.02;101216.44;682868;28;1095;-84
2023/04/06 00:50:59;;;;;;;16.60;10.90;;;;;;;1.62;55.81;101205.59;682885;29;1082;-85
2023/04/06 00:51:20;;;;;;;18.53;11.17;;;;;;;1.63;55.89;101208.28;680256;29;1312;-84
2023/04/06 00:51:41;;;;;;;18.70;11.00;;;;;;;1.67;55.93;101217.13;682679;28;1213;-85
2023/04/06 00:52:02;;;;;;;20.30;11.25;;;;;;;1.65;55.90;101216.13;685671;28;756;-84
2023/04/06 00:52:22;;;;;;;19.30;10.90;;;;;;;1.53;56.44;101200.69;683049;28;849;-85
2023/04/06 00:52:44;;;;;;;18.42;11.10;;;;;;;1.63;56.06;101213.44;685365;28;1902;-85
2023/04/06 00:53:05;;;;;;;17.05;10.50;;;;;;;1.66;55.99;101217.00;688178;28;1389;-85
2023/04/06 00:53:25;;;;;;;16.73;10.70;;;;;;;1.56;55.92;101195.75;685707;28;807;-84
2023/04/06 00:53:47;;;;;;;15.45;10.10;;;;;;;1.56;56.33;101192.28;685436;28;1144;-85
2023/04/06 00:54:08;;;;;;;17.17;10.60;;;;;;;1.56;56.09;101200.00;680332;29;1098;-85
2023/04/06 00:54:30;;;;;;;18.17;10.85;;;;;;;1.45;56.48;101188.94;680283;29;820;-85
2023/04/06 00:54:52;;;;;;;21.20;11.70;;;;;;;1.53;56.54;101200.69;685555;28;1408;-85
2023/04/06 00:55:14;;;;;;;21.15;11.65;;;;;;;1.55;56.09;101193.97;685601;28;1387;-85
2023/04/06 00:55:38;;;;;;;18.52;11.30;;;;;;;1.55;56.04;101199.13;682459;29;1240;-86
2023/04/06 00:56:00;;;;;;;19.55;11.00;;;;;;;1.55;56.42;101193.97;683013;29;891;-85
2023/04/06 00:56:21;;;;;;;18.65;10.80;;;;;;;1.55;56.12;101200.78;685674;28;1207;-85
2023/04/06 00:56:45;;;;;;;18.08;10.73;;;;;;;1.52;56.47;101198.88;688133;28;1067;-84
2023/04/06 00:57:06;;;;;;;14.93;10.35;;;;;;;1.49;56.02;101190.97;682864;29;1207;-85
2023/04/06 00:57:27;;;;;;;15.45;10.60;;;;;;;1.54;56.35;101201.56;685568;28;1211;-85
2023/04/06 00:57:50;;;;;;;16.08;10.60;;;;;;;1.51;56.40;101202.25;685421;28;1344;-84
2023/04/06 00:58:11;;;;;;;18.00;10.98;;;;;;;1.43;56.49;101187.94;683004;29;997;-85
2023/04/06 00:58:41;;;;;;;18.80;11.15;;;;;;;1.47;56.85;101197.69;680135;29;1233;-85
2023/04/06 00:59:02;;;;;;;18.40;11.30;;;;;;;1.40;56.53;101188.59;680243;29;1046;-85
2023/04/06 00:59:24;;;;;;;19.17;11.32;;;;;;;1.48;56.25;101202.91;682975;29;1253;-85
2023/04/06 00:59:46;;;;;;;17.98;10.63;;;;;;;1.44;56.23;101189.72;684569;28;1649;-85
2023/04/06 01:00:08;;;;;;;16.95;10.07;;;;;;;1.34;56.64;101186.50;683043;29;1077;-85
2023/04/06 01:00:30;;;;;;;16.60;10.43;;;;;;;1.43;56.49;101193.09;685566;28;1264;-85
2023/04/06 01:00:53;;;;;;;19.05;11.18;;;;;;;1.40;56.54;101193.75;688152;28;1315;-85
2023/04/06 01:01:16;;;;;;;19.10;11.60;;;;;;;1.36;56.69;101179.78;685745;28;1061;-86
2023/04/06 01:01:37;;;;;;;18.98;11.93;;;;;;;1.44;56.82;101194.88;680255;29;1252;-84
2023/04/06 01:02:10;;;;;;;19.17;11.90;;;;;;;1.41;56.85;101194.66;680425;29;1198;-84
2023/04/06 01:02:37;;;;;;;18.90;11.52;;;;;;;1.35;56.58;101185.72;680515;29;1391;-85
2023/04/06 01:02:58;;;;;;;18.10;11.27;;;;;;;1.33;56.66;101177.00;683371;29;1310;-85
2023/04/06 01:03:26;;;;;;;16.95;11.30;;;;;;;1.32;56.60;101184.59;683138;28;903;-84
2023/04/06 01:03:49;;;;;;;18.38;11.93;;;;;;;1.40;57.12;101195.44;683872;28;1011;-81
2023/04/06 01:04:11;;;;;;;18.65;12.10;;;;;;;1.30;56.70;101181.03;687711;28;1382;-83
2023/04/06 01:04:35;;;;;;;16.58;11.60;;;;;;;1.38;57.10;101185.03;688123;28;776;-82
2023/04/06 01:04:58;;;;;;;17.23;11.77;;;;;;;1.39;57.13;101191.09;684148;28;1112;-84
2023/04/06 01:05:28;;;;;;;18.35;11.40;;;;;;;1.40;57.02;101185.16;680798;29;792;-85
2023/04/06 01:05:55;;;;;;;19.23;11.70;;;;;;;1.38;56.96;101190.19;686014;28;994;-85
2023/04/06 01:06:19;;;;;;;19.13;11.65;;;;;;;1.49;56.69;101193.53;683394;28;1006;-85
2023/04/06 01:07:00;;;;;;;21.73;11.40;;;;;;;1.45;56.79;101196.66;683214;28;1315;-84
2023/04/06 01:07:30;;;;;;;20.45;11.40;;;;;;;1.44;56.93;101185.50;680676;28;1286;-84
2023/04/06 01:07:59;;;;;;;16.88;11.10;;;;;;;1.40;56.86;101188.59;683147;28;1123;-85
2023/04/06 01:08:22;;;;;;;18.50;11.93;;;;;;;1.34;56.86;101176.22;683271;28;796;-84
2023/04/06 01:08:47;;;;;;;18.67;12.30;;;;;;;1.37;57.28;101178.09;682739;28;1250;-85
2023/04/06 01:09:12;;;;;;;18.17;12.35;;;;;;;1.36;57.13;101182.34;683203;29;949;-85
2023/04/06 01:09:33;;;;;;;18.70;11.85;;;;;;;1.38;56.90;101181.59;686004;28;887;-84
2023/04/06 01:09:59;;;;;;;20.27;11.48;;;;;;;1.39;57.02;101196.22;683126;29;1276;-84
2023/04/06 01:10:25;;;;;;;20.98;11.70;;;;;;;1.31;57.38;101190.53;685562;28;1237;-85
2023/04/06 01:10:50;;;;;;;20.92;11.77;;;;;;;1.34;57.06;101183.94;683131;29;1245;-85
2023/04/06 01:11:22;;;;;;;17.30;12.20;;;;;;;1.43;57.08;101195.66;680382;29;1219;-84
2023/04/06 01:11:44;;;;;;;17.98;12.70;;;;;;;1.34;57.27;101191.63;682945;29;1179;-85
2023/04/06 01:12:10;;;;;;;19.33;12.68;;;;;;;1.27;57.23;101181.69;680503;29;1129;-85
2023/04/06 01:12:30;;;;;;;18.77;11.43;;;;;;;1.28;57.03;101173.19;685673;28;1387;-84
2023/04/06 01:12:53;;;;;;;20.67;11.55;;;;;;;1.26;56.94;101173.88;685385;28;1435;-85
2023/04/06 01:13:30;;;;;;;21.08;12.15;;;;;;;1.27;57.13;101173.09;683050;29;887;-84
2023/04/06 01:13:57;;;;;;;18.10;11.85;;;;;;;1.37;57.34;101180.69;680268;29;1358;-85
2023/04/06 01:14:37;;;;;;;17.27;11.93;;;;;;;1.32;57.40;101176.88;682988;29;1243;-84
2023/04/06 01:14:58;;;;;;;18.33;12.18;;;;;;;1.29;57.23;101168.94;685439;28;1154;-85
2023/04/06 01:15:20;;;;;;;19.25;12.38;;;;;;;1.29;56.88;101174.97;683000;29;1082;-85
2023/04/06 01:15:46;;;;;;;17.75;12.10;;;;;;;1.34;57.19;101183.94;680219;29;987;-84
2023/04/06 01:16:11;;;;;;;17.48;11.80;;;;;;;1.33;56.92;101177.00;682836;28;1275;-84
2023/04/06 01:16:44;;;;;;;17.02;11.77;;;;;;;1.24;56.90;101168.63;685376;28;1283;-85
2023/04/06 01:17:11;;;;;;;17.23;11.70;;;;;;;1.31;57.37;101188.84;680259;29;1272;-85
2023/04/06 01:17:32;;;;;;;17.65;11.45;;;;;;;1.17;57.01;101174.97;680340;29;1229;-84
2023/04/06 01:18:00;;;;;;;17.90;11.20;;;;;;;1.28;57.38;101172.31;682965;29;885;-84
2023/04/06 01:18:26;;;;;;;18.50;11.52;;;;;;;1.34;57.22;101188.19;682839;29;1468;-84
2023/04/06 01:19:30;;;;;;;19.02;11.88;;;;;;;1.36;57.48;101189.19;682635;28;1257;-85
2023/04/06 01:19:57;;;;;;;17.13;11.10;;;;;;;1.30;57.25;101184.50;682901;29;1101;-84
2023/04/06 01:20:23;;;;;;;16.30;10.90;;;;;;;1.27;57.13;101176.53;682845;28;1269;-85
2023/04/06 01:20:44;;;;;;;17.10;11.20;;;;;;;1.25;57.41;101167.84;682791;29;1433;-84
2023/04/06 01:21:05;;;;;;;19.02;11.60;;;;;;;1.34;57.15;101188.19;685571;28;1227;-85
2023/04/06 01:21:26;;;;;;;19.20;11.75;;;;;;;1.28;57.47;101173.19;685604;28;1178;-83
2023/04/06 01:22:16;;;;;;;17.55;11.75;;;;;;;1.25;57.25;101160.13;680053;29;1336;-85
2023/04/06 01:22:47;;;;;;;18.70;11.88;;;;;;;1.32;57.31;101188.06;684817;28;1311;-84
2023/04/06 01:23:08;;;;;;;19.30;11.50;;;;;;;1.31;57.37;101172.53;685643;28;1273;-84
2023/04/06 01:23:32;;;;;;;17.77;11.00;;;;;;;1.40;57.17;101185.16;682898;28;1308;-85
2023/04/06 01:23:53;;;;;;;19.10;11.70;;;;;;;1.37;57.28;101180.69;682924;29;1141;-85
2023/04/06 01:24:21;;;;;;;18.08;11.68;;;;;;;1.34;56.82;101173.63;679850;29;1179;-85
2023/04/06 01:25:02;;;;;;;16.95;10.98;;;;;;;1.26;57.11;101169.63;685523;28;1301;-84
2023/04/06 01:25:42;;;;;;;18.02;10.60;;;;;;;1.33;56.82;101181.22;682623;29;1854;-84
2023/04/06 01:26:03;;;;;;;18.63;11.00;;;;;;;1.28;57.16;101178.31;680332;29;1202;-84
2023/04/06 01:26:25;;;;;;;19.05;11.52;;;;;;;1.27;57.18;101165.38;682898;28;1366;-85
2023/04/06 01:26:47;;;;;;;17.83;11.68;;;;;;;1.33;57.15;101182.13;682824;29;1234;-85
2023/04/06 01:27:08;;;;;;;17.75;11.55;;;;;;;1.21;57.01;101161.56;685466;28;1391;-85
2023/04/06 01:27:44;;;;;;;18.85;11.30;;;;;;;1.20;56.83;101148.59;682758;29;1277;-84
2023/04/06 01:28:22;;;;;;;18.25;11.50;;;;;;;1.20;57.23;101164.03;680271;29;1279;-84
2023/04/06 01:29:09;;;;;;;18.13;11.20;;;;;;;1.22;57.42;101167.63;682941;29;959;-84
2023/04/06 01:29:30;;;;;;;18.47;10.80;;;;;;;1.28;57.30;101178.31;682903;29;1056;-84
2023/04/06 01:29:52;;;;;;;19.88;11.00;;;;;;;1.26;57.14;101179.91;685410;28;1105;-84
2023/04/06 01:30:44;;;;;;;19.33;11.30;;;;;;;1.31;57.07;101178.56;682650;28;1030;-85
2023/04/06 01:31:16;;;;;;;21.27;11.75;;;;;;;1.22;56.97;101162.47;682893;29;1296;-85
2023/04/06 01:31:44;;;;;;;19.85;11.75;;;;;;;1.22;57.51;101168.50;685423;28;1030;-84
2023/04/06 01:32:05;;;;;;;18.45;11.48;;;;;;;1.20;57.33;101164.94;682897;29;1211;-85
2023/04/06 01:32:30;;;;;;;19.33;11.52;;;;;;;1.15;57.21;101157.69;680193;29;1278;-85
2023/04/06 01:32:51;;;;;;;19.02;11.55;;;;;;;1.14;57.09;101158.47;680031;29;1919;-84
2023/04/06 01:33:21;;;;;;;16.95;11.40;;;;;;;1.19;57.04;101167.38;680179;29;1148;-85
2023/04/06 01:33:56;;;;;;;16.50;11.10;;;;;;;1.25;57.52;101172.06;682755;28;1103;-85
2023/04/06 01:34:19;;;;;;;18.15;11.00;;;;;;;1.20;57.38;101164.94;682898;28;1577;-85
2023/04/06 01:34:41;;;;;;;19.33;11.13;;;;;;;1.18;57.02;101155.31;686102;28;1064;-85
2023/04/06 01:35:01;;;;;;;18.38;11.40;;;;;;;1.18;57.47;101163.03;683533;28;1093;-84
2023/04/06 01:35:26;;;;;;;19.63;11.85;;;;;;;1.16;57.17;101159.47;683491;29;1294;-85
2023/04/06 01:35:54;;;;;;;18.98;11.70;;;;;;;1.15;57.35;101155.09;683364;29;1078;-84
2023/04/06 01:36:16;;;;;;;19.57;11.67;;;;;;;1.13;57.00;101147.28;683354;29;1183;-84
2023/04/06 01:36:37;;;;;;;18.95;11.68;;;;;;;1.19;57.09;101149.38;680771;29;1196;-84
2023/04/06 01:37:13;;;;;;;19.35;11.70;;;;;;;1.22;57.09;101165.06;680771;29;1145;-84
2023/04/06 01:37:34;;;;;;;20.10;11.57;;;;;;;1.20;57.03;101161.47;680826;29;1390;-84
2023/04/06 01:37:58;;;;;;;17.75;11.00;;;;;;;1.15;57.25;101152.53;680666;29;899;-84
2023/04/06 01:38:25;;;;;;;19.45;11.27;;;;;;;1.08;57.36;101149.50;683436;28;1387;-84
2023/04/06 01:38:46;;;;;;;18.98;11.50;;;;;;;1.12;57.19;101149.72;685938;28;1554;-84
2023/04/06 01:39:09;;;;;;;18.35;11.95;;;;;;;1.15;57.20;101161.13;683336;28;1242;-85
2023/04/06 01:39:31;;;;;;;17.80;11.50;;;;;;;1.14;57.17;101163.59;680876;29;1291;-84
2023/04/06 01:39:55;;;;;;;15.77;11.00;;;;;;;1.09;57.28;101155.53;688535;28;1441;-85
2023/04/06 01:40:29;;;;;;;16.55;11.05;;;;;;;1.11;57.22;101147.94;683379;28;955;-84
2023/04/06 01:40:50;;;;;;;17.80;11.27;;;;;;;1.12;57.29;101155.78;680619;29;1465;-85
2023/04/06 01:41:14;;;;;;;19.38;12.15;;;;;;;1.14;57.16;101155.91;678109;29;1468;-85
2023/04/06 01:41:47;;;;;;;17.55;12.10;;;;;;;1.03;57.17;101140.56;680544;29;1237;-84
2023/04/06 01:42:08;;;;;;;16.98;11.63;;;;;;;1.14;57.11;101164.47;683390;29;1288;-85
2023/04/06 01:42:32;;;;;;;17.13;11.38;;;;;;;1.10;57.10;101161.59;683372;29;899;-84
2023/04/06 01:42:53;;;;;;;17.25;11.38;;;;;;;1.05;57.24;101151.84;683319;29;1211;-84
2023/04/06 01:43:22;;;;;;;18.73;11.80;;;;;;;1.02;57.30;101148.19;686074;28;922;-84
2023/04/06 01:44:13;;;;;;;17.52;11.00;;;;;;;1.04;57.47;101150.06;680592;29;1459;-84
2023/04/06 01:44:34;;;;;;;16.13;10.80;;;;;;;1.01;57.32;101147.28;683392;29;1472;-85
2023/04/06 01:45:02;;;;;;;17.10;11.70;;;;;;;1.04;57.37;101152.63;680732;29;1207;-84
2023/04/06 01:45:23;;;;;;;18.48;11.85;;;;;;;1.11;57.55;101163.38;683459;29;1275;-84
2023/04/06 01:45:46;;;;;;;20.80;12.27;;;;;;;1.03;57.66;101153.41;685923;28;1360;-84
2023/04/06 01:46:13;;;;;;;20.15;11.80;;;;;;;1.03;57.74;101148.28;680792;29;1356;-85
2023/04/06 01:46:36;;;;;;;18.02;11.32;;;;;;;1.02;57.29;101150.75;683453;29;1057;-85
2023/04/06 01:46:59;;;;;;;19.48;11.45;;;;;;;1.05;57.55;101154.41;686033;28;1269;-85
2023/04/06 01:47:20;;;;;;;21.30;11.60;;;;;;;0.96;57.76;101151.19;680777;29;1074;-85
2023/04/06 01:47:41;;;;;;;22.20;11.75;;;;;;;0.92;57.82;101144.91;680566;29;1250;-85
2023/04/06 01:48:02;;;;;;;18.88;11.10;;;;;;;0.98;57.71;101151.28;683341;29;1225;-85
2023/04/06 01:48:24;;;;;;;18.15;11.20;;;;;;;0.93;57.62;101149.28;688803;28;1385;-85
2023/04/06 01:48:45;;;;;;;18.00;11.40;;;;;;;0.93;57.63;101151.84;683221;29;1259;-85
2023/04/06 01:49:14;;;;;;;18.38;11.23;;;;;;;0.89;57.77;101141.22;683315;29;1412;-84
2023/04/06 01:49:35;;;;;;;18.42;11.20;;;;;;;0.99;57.44;101159.13;686098;28;922;-84
2023/04/06 01:49:57;;;;;;;18.30;11.23;;;;;;;0.94;57.84;101153.66;680782;29;1448;-85